Time;durP1;ratioP1;P1;durP2;ratioP2;P2;SDS_P1;SDS_P2;PMS_P1;PMS_P2;Temp;Humidity;BMP_temperature;BMP_pressure;BME280_temperature;BME280_humidity;BME280_pressure;Samples;Min_cycle;Max_cycle;Signal;HPM_P1;HPM_P2
2023/11/12 00:00:45;;;;;;;2.70;1.00;;;;;;;25.73;37.38;98669.38;4485053;32;34271;-59
2023/11/12 00:03:13;;;;;;;3.17;1.12;;;;;;;25.71;37.56;98669.66;4485111;32;33479;-58
2023/11/12 00:05:41;;;;;;;2.97;0.90;;;;;;;25.69;37.57;98674.56;4484434;32;33888;-59
2023/11/12 00:08:08;;;;;;;1.85;1.00;;;;;;;25.67;37.54;98663.91;4484271;31;34042;-59
2023/11/12 00:10:36;;;;;;;2.53;0.90;;;;;;;25.66;37.67;98667.75;4485243;32;34604;-58
2023/11/12 00:13:04;;;;;;;3.85;1.02;;;;;;;25.67;37.77;98668.56;4485046;32;33547;-57
2023/11/12 00:15:31;;;;;;;3.60;0.98;;;;;;;25.65;37.83;98668.03;4484561;32;34182;-59
2023/11/12 00:17:59;;;;;;;3.85;1.20;;;;;;;25.63;37.87;98676.47;4484955;32;34801;-58
2023/11/12 00:20:28;;;;;;;1.35;0.82;;;;;;;25.61;37.94;98680.56;4485008;32;33807;-57
2023/11/12 00:22:55;;;;;;;1.92;1.00;;;;;;;25.57;38.00;98688.47;4484642;32;34151;-58
2023/11/12 00:25:24;;;;;;;4.95;1.50;;;;;;;25.56;38.05;98675.91;4485149;32;34787;-58
2023/11/12 00:27:54;;;;;;;3.50;1.30;;;;;;;25.53;38.11;98676.44;4485117;32;34052;-59
2023/11/12 00:30:21;;;;;;;2.65;1.17;;;;;;;25.52;38.23;98685.72;4484546;32;34503;-58
2023/11/12 00:32:49;;;;;;;2.28;0.88;;;;;;;25.52;38.23;98683.00;4484565;32;33355;-58
2023/11/12 00:35:17;;;;;;;2.22;1.00;;;;;;;25.48;38.23;98678.34;4484972;32;34101;-58
2023/11/12 00:37:46;;;;;;;3.42;0.98;;;;;;;25.46;38.31;98684.06;4484676;32;33915;-58
2023/11/12 00:40:16;;;;;;;2.73;1.00;;;;;;;25.44;38.33;98687.03;4483574;32;34478;-59
2023/11/12 00:42:43;;;;;;;;;;;;;;;25.42;38.47;98685.69;4485517;32;33352;-58
2023/11/12 00:45:12;;;;;;;1.85;1.10;;;;;;;25.51;38.46;98695.00;4484705;32;34193;-59
2023/11/12 00:47:40;;;;;;;2.53;1.00;;;;;;;25.43;38.58;98703.72;4484976;32;34766;-59
2023/11/12 00:50:08;;;;;;;4.95;1.05;;;;;;;25.38;38.57;98695.50;4484442;32;33850;-58
2023/11/12 00:52:36;;;;;;;3.87;0.90;;;;;;;25.35;38.60;98699.56;4484480;32;34307;-57
2023/11/12 00:55:04;;;;;;;1.55;1.20;;;;;;;25.35;38.64;98694.09;4484865;32;34377;-58
2023/11/12 00:57:32;;;;;;;1.83;1.20;;;;;;;25.33;38.68;98695.47;4484618;32;34903;-58
2023/11/12 00:59:59;;;;;;;2.30;1.20;;;;;;;25.31;38.77;98694.91;4484851;32;33496;-58
2023/11/12 01:02:28;;;;;;;3.45;1.20;;;;;;;25.29;38.90;98705.28;4484884;32;34043;-59
2023/11/12 01:04:56;;;;;;;1.95;1.00;;;;;;;25.29;38.97;98710.75;4484518;32;33914;-59
2023/11/12 01:07:23;;;;;;;3.15;0.80;;;;;;;25.27;38.98;98718.34;4484530;32;33645;-58
2023/11/12 01:09:51;;;;;;;1.55;1.00;;;;;;;25.25;39.01;98720.53;4484477;32;33797;-59
2023/11/12 01:12:19;;;;;;;2.72;1.08;;;;;;;25.23;39.08;98714.50;4484740;32;33270;-58
2023/11/12 01:14:47;;;;;;;1.12;0.88;;;;;;;25.22;39.09;98715.59;4484738;32;33947;-59
2023/11/12 01:17:15;;;;;;;1.33;0.80;;;;;;;25.21;39.12;98713.97;4483964;32;34860;-58
2023/11/12 01:19:43;;;;;;;1.40;0.82;;;;;;;25.21;39.15;98716.69;4484196;32;34781;-59
2023/11/12 01:22:11;;;;;;;2.62;1.02;;;;;;;25.19;39.22;98716.97;4484493;32;33517;-58
2023/11/12 01:24:39;;;;;;;1.48;0.93;;;;;;;25.18;39.22;98716.16;4484397;32;33999;-58
2023/11/12 01:27:07;;;;;;;1.62;1.00;;;;;;;25.16;39.25;98715.56;4483061;32;34076;-58
2023/11/12 01:29:35;;;;;;;4.60;1.12;;;;;;;25.15;39.26;98724.84;4484638;32;33668;-58
2023/11/12 01:32:03;;;;;;;3.33;0.80;;;;;;;25.15;39.23;98727.59;4484417;32;33469;-58
2023/11/12 01:34:31;;;;;;;2.15;0.82;;;;;;;25.13;39.27;98718.84;4482952;32;34766;-58
2023/11/12 01:36:59;;;;;;;3.45;0.90;;;;;;;25.13;39.24;98720.72;4484454;32;33732;-58
2023/11/12 01:39:27;;;;;;;1.95;0.80;;;;;;;25.13;39.26;98728.91;4484436;32;33990;-58
2023/11/12 01:41:54;;;;;;;1.95;1.02;;;;;;;25.10;39.32;98722.09;4483638;32;33358;-58
2023/11/12 01:44:22;;;;;;;2.58;1.02;;;;;;;25.10;39.32;98716.62;4484236;32;33755;-59
2023/11/12 01:46:51;;;;;;;2.17;1.12;;;;;;;25.09;39.37;98717.72;4484283;32;33812;-58
2023/11/12 01:49:19;;;;;;;4.68;1.00;;;;;;;25.08;39.44;98709.78;4482830;32;34546;-59
2023/11/12 01:51:50;;;;;;;1.62;0.98;;;;;;;25.07;39.45;98721.75;4484296;32;34355;-58
2023/11/12 01:54:17;;;;;;;2.42;1.00;;;;;;;25.08;39.41;98729.72;4484318;32;34213;-58
2023/11/12 01:56:45;;;;;;;1.60;0.80;;;;;;;25.08;39.44;98723.44;4484138;32;33623;-58
2023/11/12 01:59:14;;;;;;;2.12;0.93;;;;;;;25.05;39.52;98724.75;4484024;32;33620;-59
2023/11/12 02:01:41;;;;;;;1.33;0.93;;;;;;;25.04;39.56;98730.47;4484265;32;33378;-59
2023/11/12 02:04:09;;;;;;;2.22;0.82;;;;;;;25.04;39.58;98728.59;4482892;32;33859;-57
2023/11/12 02:06:37;;;;;;;1.60;0.80;;;;;;;25.02;39.54;98724.47;4482847;32;34775;-59
2023/11/12 02:09:05;;;;;;;2.92;1.00;;;;;;;25.02;39.49;98729.91;4483805;31;34206;-58
2023/11/12 02:11:34;;;;;;;3.15;0.90;;;;;;;25.01;39.55;98728.28;4483663;32;33648;-58
2023/11/12 02:14:01;;;;;;;1.60;0.90;;;;;;;24.99;39.57;98742.16;4470084;32;33820;-58
2023/11/12 02:16:29;;;;;;;3.45;0.82;;;;;;;24.97;39.62;98744.34;4483999;32;34842;-59
2023/11/12 02:18:56;;;;;;;2.42;0.82;;;;;;;24.97;39.54;98752.53;4483863;32;33656;-58
2023/11/12 02:21:24;;;;;;;1.12;0.75;;;;;;;24.97;39.54;98755.25;4484313;32;33461;-58
2023/11/12 02:23:52;;;;;;;1.40;0.80;;;;;;;24.95;39.56;98754.72;4484081;32;34645;-58
2023/11/12 02:26:20;;;;;;;1.40;0.90;;;;;;;24.95;39.57;98754.72;4483886;32;34697;-58
2023/11/12 02:28:47;;;;;;;1.55;0.88;;;;;;;24.94;39.54;98761.25;4483077;32;34467;-58
2023/11/12 02:31:15;;;;;;;3.37;0.90;;;;;;;24.93;39.55;98760.41;4483448;32;33480;-58
2023/11/12 02:33:43;;;;;;;2.08;0.90;;;;;;;24.92;39.56;98771.59;4483653;32;33992;-59
2023/11/12 02:36:11;;;;;;;1.67;1.00;;;;;;;24.92;39.57;98774.34;4483934;32;34494;-58
2023/11/12 02:38:39;;;;;;;1.25;0.85;;;;;;;24.90;39.55;98769.16;4483800;32;33624;-58
2023/11/12 02:41:10;;;;;;;2.50;1.20;;;;;;;24.90;39.57;98771.03;4483710;32;33566;-58
2023/11/12 02:43:38;;;;;;;1.00;0.70;;;;;;;24.89;39.61;98781.13;4483630;32;34273;-58
2023/11/12 02:46:05;;;;;;;2.85;0.98;;;;;;;24.89;39.61;98774.84;4483503;32;34699;-58
2023/11/12 02:48:43;;;;;;;1.90;0.80;;;;;;;24.87;39.66;98777.84;4483314;32;34023;-58
2023/11/12 02:51:10;;;;;;;2.67;0.90;;;;;;;24.87;39.72;98782.47;4469383;32;32922;-58
2023/11/12 02:53:38;;;;;;;1.62;0.90;;;;;;;24.87;39.70;98782.47;4483247;32;33948;-58
2023/11/12 02:56:06;;;;;;;1.00;0.73;;;;;;;24.84;39.75;98786.53;4483768;32;34053;-58
2023/11/12 02:58:34;;;;;;;0.75;0.62;;;;;;;24.84;39.75;98791.19;4483568;32;34098;-58
2023/11/12 03:01:02;;;;;;;1.60;0.95;;;;;;;24.85;39.82;98784.62;4483205;32;33268;-58
2023/11/12 03:03:29;;;;;;;4.85;0.98;;;;;;;24.84;39.84;98791.19;4483319;32;33795;-59
2023/11/12 03:05:57;;;;;;;1.58;0.80;;;;;;;24.84;39.85;98799.38;4469388;32;34380;-58
2023/11/12 03:08:25;;;;;;;1.95;0.90;;;;;;;24.83;39.81;98803.19;4467514;32;34043;-58
2023/11/12 03:10:54;;;;;;;1.05;0.70;;;;;;;24.82;39.85;98801.53;4467623;32;33414;-58
2023/11/12 03:13:21;;;;;;;3.20;0.87;;;;;;;24.81;39.73;98805.34;4467282;32;34639;-59
2023/11/12 03:15:49;;;;;;;1.62;0.90;;;;;;;24.81;39.86;98808.09;4467538;32;34979;-58
2023/11/12 03:18:16;;;;;;;1.87;0.90;;;;;;;24.81;39.82;98805.34;4467441;32;33955;-59
2023/11/12 03:20:46;;;;;;;1.58;0.90;;;;;;;24.79;39.99;98804.78;4467283;32;34048;-59
2023/11/12 03:23:13;;;;;;;1.80;0.80;;;;;;;24.78;40.12;98806.69;4467357;32;33550;-58
2023/11/12 03:25:41;;;;;;;1.00;0.80;;;;;;;24.77;40.02;98807.78;4467311;32;34644;-58
2023/11/12 03:28:08;;;;;;;1.90;0.82;;;;;;;24.76;40.00;98814.31;4467198;32;33658;-59
2023/11/12 03:30:39;;;;;;;2.72;1.00;;;;;;;24.76;39.91;98808.88;4467220;32;33513;-58
2023/11/12 03:33:07;;;;;;;2.17;0.88;;;;;;;24.75;39.84;98812.66;4467182;32;34745;-58
2023/11/12 03:35:37;;;;;;;1.20;0.70;;;;;;;24.74;39.95;98810.19;4467042;32;34707;-58
2023/11/12 03:38:05;;;;;;;1.27;0.90;;;;;;;24.73;39.99;98817.56;4467229;32;34124;-58
2023/11/12 03:40:33;;;;;;;3.22;1.00;;;;;;;24.75;39.98;98814.56;4467656;32;34313;-58
2023/11/12 03:43:01;;;;;;;2.20;1.00;;;;;;;24.73;39.84;98814.81;4469397;32;33664;-58
2023/11/12 03:45:29;;;;;;;2.87;1.15;;;;;;;24.73;39.86;98809.38;4469784;32;33637;-58
2023/11/12 03:47:56;;;;;;;2.65;0.85;;;;;;;24.73;39.95;98803.91;4469286;32;33863;-58
2023/11/12 03:50:25;;;;;;;1.35;0.90;;;;;;;24.72;39.93;98806.91;4484176;31;33620;-59
2023/11/12 03:52:53;;;;;;;2.75;1.02;;;;;;;24.69;39.95;98803.59;4485378;32;33920;-59
2023/11/12 03:55:20;;;;;;;1.70;0.70;;;;;;;24.69;39.99;98809.06;4485031;32;34904;-59
2023/11/12 03:57:48;;;;;;;2.12;0.70;;;;;;;24.69;39.89;98810.97;4484938;32;33757;-58
2023/11/12 04:00:15;;;;;;;5.65;1.10;;;;;;;24.68;39.99;98812.06;4485083;32;33249;-58
2023/11/12 04:02:44;;;;;;;1.55;0.95;;;;;;;24.69;40.00;98813.69;4485019;32;34340;-58
2023/11/12 04:05:11;;;;;;;2.22;0.90;;;;;;;24.67;39.97;98822.16;4484829;32;34340;-59
2023/11/12 04:07:39;;;;;;;1.80;0.93;;;;;;;24.65;40.02;98821.56;4485020;32;33516;-59
2023/11/12 04:10:07;;;;;;;2.65;0.90;;;;;;;24.65;40.02;98818.84;4484883;31;34074;-58
2023/11/12 04:12:35;;;;;;;2.67;1.00;;;;;;;24.64;40.05;98825.38;4484661;32;34624;-57
2023/11/12 04:15:03;;;;;;;1.27;0.82;;;;;;;24.64;40.03;98838.19;4484966;32;34438;-58
2023/11/12 04:17:31;;;;;;;3.28;0.93;;;;;;;24.63;40.03;98833.84;4485281;32;33789;-59
2023/11/12 04:20:00;;;;;;;0.68;0.60;;;;;;;24.63;39.99;98836.56;4485097;32;32899;-58
2023/11/12 04:22:27;;;;;;;1.90;0.75;;;;;;;24.62;40.11;98830.28;4484968;32;34390;-59
2023/11/12 04:24:55;;;;;;;2.12;0.90;;;;;;;24.61;40.09;98836.78;4484878;32;33758;-58
2023/11/12 04:27:22;;;;;;;1.15;0.80;;;;;;;24.62;40.13;98845.78;4484922;32;33426;-58
2023/11/12 04:29:50;;;;;;;2.92;0.90;;;;;;;24.60;40.04;98851.53;4485207;32;33028;-59
2023/11/12 04:32:18;;;;;;;1.62;0.80;;;;;;;24.59;40.08;98847.16;4484859;32;33969;-59
2023/11/12 04:34:46;;;;;;;2.40;0.70;;;;;;;24.58;40.13;98845.50;4484907;32;33548;-58
2023/11/12 04:37:13;;;;;;;1.87;0.73;;;;;;;24.57;40.09;98846.56;4484666;32;34965;-58
2023/11/12 04:39:42;;;;;;;1.07;0.73;;;;;;;24.56;40.18;98847.66;4484878;32;33719;-58
2023/11/12 04:42:10;;;;;;;2.67;0.90;;;;;;;24.56;40.19;98849.56;4484859;32;33750;-58
2023/11/12 04:44:37;;;;;;;2.45;0.90;;;;;;;24.56;40.16;98850.37;4484850;32;34753;-58
2023/11/12 04:47:05;;;;;;;1.45;0.90;;;;;;;24.55;40.19;98846.00;4484563;32;34046;-58
2023/11/12 04:49:33;;;;;;;0.80;0.70;;;;;;;24.55;40.17;98850.66;4484583;32;33415;-57
2023/11/12 04:52:00;;;;;;;1.23;0.80;;;;;;;24.53;40.26;98853.62;4483981;32;33921;-59
2023/11/12 04:54:28;;;;;;;1.05;0.80;;;;;;;24.52;40.31;98849.25;4484433;32;34100;-59
2023/11/12 04:56:55;;;;;;;1.02;0.60;;;;;;;24.52;40.34;98851.97;4484688;32;33792;-58
2023/11/12 04:59:23;;;;;;;1.02;0.75;;;;;;;24.52;40.31;98854.69;4484724;32;33412;-57
2023/11/12 05:01:51;;;;;;;1.73;0.90;;;;;;;24.52;40.34;98857.44;4484648;32;34006;-58
2023/11/12 05:04:19;;;;;;;2.12;0.70;;;;;;;24.51;40.37;98872.16;4481240;32;34935;-58
2023/11/12 05:06:46;;;;;;;1.45;0.80;;;;;;;24.52;40.34;98868.34;4469079;32;34530;-60
2023/11/12 05:09:15;;;;;;;1.70;0.80;;;;;;;24.52;40.35;98875.69;4468775;32;34053;-58
2023/11/12 05:11:42;;;;;;;1.23;0.80;;;;;;;24.50;40.34;98875.97;4468961;32;34704;-58
2023/11/12 05:14:10;;;;;;;1.70;0.80;;;;;;;24.49;40.31;98877.03;4468808;32;34794;-58
2023/11/12 05:16:43;;;;;;;1.40;0.60;;;;;;;24.49;40.32;98871.59;4468961;32;34090;-57
2023/11/12 05:19:11;;;;;;;0.95;0.80;;;;;;;24.48;40.36;98880.84;4455482;32;33368;-59
2023/11/12 05:21:45;;;;;;;1.35;0.85;;;;;;;24.49;40.28;98874.31;4468833;32;33114;-58
2023/11/12 05:24:13;;;;;;;0.75;0.62;;;;;;;24.49;40.31;98882.50;4468783;32;33762;-58
2023/11/12 05:26:41;;;;;;;1.58;0.70;;;;;;;24.48;40.47;98882.72;4468960;32;34670;-59
2023/11/12 05:29:08;;;;;;;0.95;0.80;;;;;;;24.47;40.40;98881.91;4468792;32;33730;-58
2023/11/12 05:31:35;;;;;;;1.50;0.77;;;;;;;24.46;40.38;98885.72;4468741;32;34385;-59
2023/11/12 05:34:03;;;;;;;3.00;0.82;;;;;;;24.47;40.39;98879.19;4468644;32;34381;-58
2023/11/12 05:36:31;;;;;;;2.00;0.90;;;;;;;24.47;40.44;98881.09;4468757;32;33747;-59
2023/11/12 05:38:58;;;;;;;1.50;0.70;;;;;;;24.46;40.43;98884.91;4468715;32;33001;-59
2023/11/12 05:41:26;;;;;;;1.27;0.73;;;;;;;24.45;40.43;98886.81;4468828;32;33963;-58
2023/11/12 05:43:53;;;;;;;4.12;0.82;;;;;;;24.46;40.42;98901.25;4454474;32;33903;-57
2023/11/12 05:46:21;;;;;;;3.47;0.80;;;;;;;24.46;40.44;98907.53;4468597;32;33719;-59
2023/11/12 05:48:49;;;;;;;1.02;0.77;;;;;;;24.43;40.47;98903.44;4460635;32;33472;-58
2023/11/12 05:51:19;;;;;;;1.52;0.80;;;;;;;24.44;40.44;98907.00;4484078;32;33943;-58
2023/11/12 05:53:46;;;;;;;3.58;1.05;;;;;;;24.43;40.57;98905.31;4484459;32;34780;-57
2023/11/12 05:56:14;;;;;;;1.37;0.70;;;;;;;24.42;40.52;98914.56;4484229;32;33845;-57
2023/11/12 05:58:42;;;;;;;0.75;0.60;;;;;;;24.42;40.49;98906.41;4484037;32;34092;-58
2023/11/12 06:01:09;;;;;;;1.05;0.90;;;;;;;24.42;40.48;98903.69;4484166;32;34815;-58
2023/11/12 06:03:37;;;;;;;1.55;0.80;;;;;;;24.40;40.58;98908.56;4484040;32;34103;-59
2023/11/12 06:06:04;;;;;;;6.57;1.23;;;;;;;24.40;40.54;98908.56;4483951;32;34099;-58
2023/11/12 06:08:32;;;;;;;1.27;0.80;;;;;;;24.40;40.56;98916.75;4484307;32;33425;-58
2023/11/12 06:11:00;;;;;;;2.17;0.70;;;;;;;24.38;40.56;98914.25;4484075;32;33669;-57
2023/11/12 06:13:27;;;;;;;2.45;1.00;;;;;;;24.38;40.50;98918.87;4483869;32;34856;-59
2023/11/12 06:15:54;;;;;;;1.42;0.80;;;;;;;24.39;40.49;98923.28;4483906;32;34030;-59
2023/11/12 06:18:22;;;;;;;3.42;0.85;;;;;;;24.38;40.64;98929.78;4484063;32;33557;-58
2023/11/12 06:20:50;;;;;;;2.67;1.17;;;;;;;24.37;40.54;98931.69;4483835;32;33733;-58
2023/11/12 06:23:17;;;;;;;1.12;0.70;;;;;;;24.37;40.57;98933.59;4483899;32;33886;-58
2023/11/12 06:25:45;;;;;;;2.42;1.02;;;;;;;24.36;40.56;98930.06;4483793;32;33981;-59
2023/11/12 06:28:13;;;;;;;1.10;0.70;;;;;;;24.37;40.69;98928.16;4483588;32;33300;-58
2023/11/12 06:30:40;;;;;;;2.37;0.90;;;;;;;24.36;40.69;98937.38;4483889;32;34664;-58
2023/11/12 06:33:08;;;;;;;3.67;0.90;;;;;;;24.34;40.67;98926.75;4483781;32;34050;-58
2023/11/12 06:35:35;;;;;;;1.27;0.80;;;;;;;24.35;40.63;98933.84;4483650;32;34179;-58
2023/11/12 06:38:03;;;;;;;1.75;0.70;;;;;;;24.34;40.65;98934.06;4483882;32;33860;-56
2023/11/12 06:40:32;;;;;;;2.50;0.70;;;;;;;24.35;40.63;98935.75;4483551;32;33751;-58
2023/11/12 06:42:59;;;;;;;1.27;0.60;;;;;;;24.34;40.64;98947.69;4483559;32;33967;-58
2023/11/12 06:45:26;;;;;;;1.62;0.70;;;;;;;24.33;40.63;98941.44;4483971;32;33804;-59
2023/11/12 06:47:54;;;;;;;1.90;0.70;;;;;;;24.34;40.69;98936.78;4483635;32;33500;-60
2023/11/12 06:50:22;;;;;;;3.42;0.90;;;;;;;24.32;40.65;98947.97;4483374;32;34094;-59
2023/11/12 06:52:49;;;;;;;1.10;0.68;;;;;;;24.33;40.64;98948.78;4483803;32;34053;-58
2023/11/12 06:55:17;;;;;;;0.70;0.70;;;;;;;24.32;40.65;98947.16;4483456;32;34597;-59
2023/11/12 06:57:45;;;;;;;1.70;0.70;;;;;;;24.32;40.72;98947.16;4483338;32;34085;-60
2023/11/12 07:00:13;;;;;;;2.80;0.90;;;;;;;24.30;40.84;98949.31;4483458;32;33963;-58
2023/11/12 07:02:41;;;;;;;2.20;0.85;;;;;;;24.30;40.88;98960.22;4483504;32;33950;-59
2023/11/12 07:05:10;;;;;;;2.30;0.80;;;;;;;24.30;40.83;98957.50;4482602;32;33836;-59
2023/11/12 07:07:38;;;;;;;3.17;0.80;;;;;;;24.30;40.82;98957.50;4481035;32;34520;-58
2023/11/12 07:10:07;;;;;;;5.35;0.82;;;;;;;24.30;40.83;98971.94;4483177;32;33925;-58
2023/11/12 07:12:36;;;;;;;4.45;0.80;;;;;;;24.31;40.82;98956.41;4483079;32;34559;-60
2023/11/12 07:15:04;;;;;;;2.50;0.90;;;;;;;24.28;40.88;98960.44;4474613;32;33926;-59
2023/11/12 07:17:32;;;;;;;0.85;0.50;;;;;;;24.28;40.85;98962.34;4485029;32;33407;-60
2023/11/12 07:20:05;;;;;;;0.75;0.52;;;;;;;24.28;40.84;98965.91;4485403;32;34035;-58
2023/11/12 07:22:36;;;;;;;;;;;;;;;24.28;40.91;98975.97;4484510;32;34785;-59
2023/11/12 07:25:03;;;;;;;;;;;;;;;24.37;40.76;98974.50;4485612;32;34477;-59
2023/11/12 07:27:31;;;;;;;3.10;0.80;;;;;;;24.39;40.69;98975.91;4485487;32;34154;-59
2023/11/12 07:29:59;;;;;;;0.77;0.60;;;;;;;24.30;40.82;98973.84;4484191;32;32998;-59
2023/11/12 07:32:27;;;;;;;1.42;0.80;;;;;;;24.26;40.96;98972.69;4485005;32;34711;-58
2023/11/12 07:34:55;;;;;;;1.98;0.90;;;;;;;24.24;41.00;98972.94;4485220;32;33809;-59
2023/11/12 07:37:22;;;;;;;1.42;0.73;;;;;;;24.25;41.06;98981.94;4485328;32;33332;-59
2023/11/12 07:39:50;;;;;;;6.55;0.90;;;;;;;24.24;41.12;98988.47;4485187;32;33900;-59
2023/11/12 07:42:18;;;;;;;1.50;0.80;;;;;;;24.22;41.21;98979.72;4485428;32;34838;-58
2023/11/12 07:44:46;;;;;;;3.22;0.65;;;;;;;24.22;41.14;98977.00;4485154;32;33525;-59
2023/11/12 07:47:21;;;;;;;4.90;1.08;;;;;;;24.23;41.17;98979.47;4484985;32;33976;-58
2023/11/12 07:49:48;;;;;;;0.80;0.65;;;;;;;24.24;41.13;98988.47;4485097;32;34559;-58
2023/11/12 07:52:16;;;;;;;1.90;0.82;;;;;;;24.24;41.14;98997.47;4485059;32;34763;-59
2023/11/12 07:54:44;;;;;;;2.05;0.80;;;;;;;24.24;41.20;99004.81;4484885;32;34167;-59
2023/11/12 07:57:12;;;;;;;4.22;0.98;;;;;;;24.23;41.18;99001.28;4485240;32;33727;-60
2023/11/12 07:59:39;;;;;;;6.37;0.90;;;;;;;24.22;41.21;99005.09;4485024;32;33938;-60
2023/11/12 08:02:06;;;;;;;1.50;0.70;;;;;;;24.22;41.23;98999.62;4485130;32;33564;-60
2023/11/12 08:04:34;;;;;;;1.10;0.70;;;;;;;24.23;41.20;99006.72;4484935;32;34492;-59
2023/11/12 08:07:02;;;;;;;0.98;0.68;;;;;;;24.23;41.04;99006.72;4483669;32;33178;-58
2023/11/12 08:09:29;;;;;;;3.20;0.73;;;;;;;24.22;40.64;99004.25;4484987;31;33829;-59
2023/11/12 08:11:57;;;;;;;2.05;0.77;;;;;;;24.22;40.44;99004.25;4484824;32;34810;-59
2023/11/12 08:14:24;;;;;;;6.30;2.28;;;;;;;24.22;40.73;99021.44;4484832;32;33495;-60
2023/11/12 08:16:52;;;;;;;6.95;2.10;;;;;;;24.20;36.51;99023.56;4484892;32;33314;-59
2023/11/12 08:19:21;;;;;;;7.37;2.03;;;;;;;24.10;34.72;99026.97;4484815;32;34695;-59
2023/11/12 08:21:48;;;;;;;6.50;2.08;;;;;;;24.06;36.14;99014.09;4484713;32;34109;-59
2023/11/12 08:24:16;;;;;;;6.03;1.45;;;;;;;24.06;37.34;99020.41;4483622;32;33853;-59
2023/11/12 08:26:43;;;;;;;3.42;1.30;;;;;;;24.11;37.30;99009.56;4484252;32;33489;-60
2023/11/12 08:29:11;;;;;;;4.03;1.30;;;;;;;24.17;37.10;99016.72;4484379;32;33464;-60
2023/11/12 08:31:38;;;;;;;3.83;1.08;;;;;;;24.26;36.98;99024.50;4485102;32;33909;-61
2023/11/12 08:34:06;;;;;;;4.50;1.35;;;;;;;24.24;37.23;99018.44;4484784;32;33906;-61
2023/11/12 08:36:34;;;;;;;2.90;1.40;;;;;;;24.27;37.36;99029.69;4484624;32;34196;-61
2023/11/12 08:39:04;;;;;;;3.80;1.50;;;;;;;24.33;37.39;99025.94;4480352;32;34599;-61
2023/11/12 08:41:32;;;;;;;2.45;1.30;;;;;;;24.42;37.46;99019.03;4485228;31;33968;-59
2023/11/12 08:44:00;;;;;;;5.22;1.30;;;;;;;24.54;37.51;99024.38;4499816;31;34085;-60
2023/11/12 08:46:28;;;;;;;2.30;1.27;;;;;;;24.66;37.58;99025.06;4490805;31;33642;-60
2023/11/12 08:48:56;;;;;;;2.60;1.37;;;;;;;24.79;37.62;99040.22;4484057;32;33524;-60
2023/11/12 08:51:23;;;;;;;3.45;1.20;;;;;;;24.92;37.64;99036.31;4484184;32;34842;-59
2023/11/12 08:53:51;;;;;;;2.55;1.15;;;;;;;25.03;37.63;99043.50;4483995;32;34490;-60
2023/11/12 08:56:18;;;;;;;4.53;1.35;;;;;;;25.15;37.58;99048.87;4483956;32;34183;-59
2023/11/12 08:58:46;;;;;;;5.37;1.40;;;;;;;25.27;37.48;99057.72;4483992;32;33810;-59
2023/11/12 09:01:14;;;;;;;6.20;1.35;;;;;;;25.37;37.38;99059.78;4484287;32;33694;-56
2023/11/12 09:03:42;;;;;;;2.72;1.23;;;;;;;25.48;37.30;99064.25;4482029;32;34584;-60
2023/11/12 09:06:10;;;;;;;5.30;1.23;;;;;;;25.58;37.22;99067.06;4484209;32;33058;-59
2023/11/12 09:08:38;;;;;;;3.78;1.12;;;;;;;25.66;37.16;99072.06;4483831;31;33583;-60
2023/11/12 09:11:06;;;;;;;2.40;1.10;;;;;;;25.74;37.12;99064.47;4483965;32;33906;-59
2023/11/12 09:13:33;;;;;;;9.70;1.67;;;;;;;25.81;37.07;99057.75;4484230;32;33921;-61
2023/11/12 09:16:00;;;;;;;5.72;1.60;;;;;;;25.84;37.02;99054.50;4484321;32;33351;-60
2023/11/12 09:18:28;;;;;;;7.32;1.65;;;;;;;25.87;37.03;99061.34;4484350;32;33916;-57
2023/11/12 09:20:56;;;;;;;7.80;1.42;;;;;;;25.91;37.05;99062.47;4483454;32;33705;-57
2023/11/12 09:23:23;;;;;;;3.47;1.37;;;;;;;25.91;37.06;99063.31;4484095;32;33806;-56
2023/11/12 09:25:51;;;;;;;5.95;1.70;;;;;;;25.93;37.05;99063.87;4483941;32;34184;-59
2023/11/12 09:28:19;;;;;;;4.65;1.40;;;;;;;25.94;37.06;99062.78;4480987;32;33763;-61
2023/11/12 09:30:46;;;;;;;5.82;1.37;;;;;;;25.94;37.08;99065.53;4482857;32;33969;-59
2023/11/12 09:33:26;;;;;;;7.03;1.75;;;;;;;25.93;37.05;99061.16;4484203;32;33963;-59
2023/11/12 09:35:54;;;;;;;6.75;1.60;;;;;;;25.92;36.97;99064.94;4483690;32;33321;-60
2023/11/12 09:38:21;;;;;;;3.95;1.20;;;;;;;25.91;36.90;99066.03;4483016;32;33434;-59
2023/11/12 09:40:49;;;;;;;5.90;1.27;;;;;;;25.89;36.74;99070.13;4482984;32;33994;-59
2023/11/12 09:43:17;;;;;;;7.12;1.40;;;;;;;25.86;36.48;99067.91;4470016;32;34015;-60
2023/11/12 09:45:44;;;;;;;4.70;1.60;;;;;;;25.83;36.42;99071.97;4483073;32;33421;-59
2023/11/12 09:48:28;;;;;;;6.55;1.23;;;;;;;25.81;36.42;99076.06;4469450;32;34643;-61
2023/11/12 09:50:55;;;;;;;6.55;1.85;;;;;;;25.78;36.41;99074.66;4470430;32;34534;-61
2023/11/12 09:53:23;;;;;;;2.67;1.30;;;;;;;25.74;36.44;99079.00;4469929;32;34586;-61
2023/11/12 09:55:51;;;;;;;4.55;1.30;;;;;;;25.72;36.47;99083.88;4467682;32;34138;-63
2023/11/12 09:58:19;;;;;;;4.03;1.27;;;;;;;25.68;36.52;99060.88;4483970;32;33885;-61
2023/11/12 10:00:47;;;;;;;5.07;1.50;;;;;;;25.65;36.54;99075.09;4474012;32;33877;-60
2023/11/12 10:03:15;;;;;;;3.67;1.33;;;;;;;25.63;36.62;99071.75;4468591;32;34565;-61
2023/11/12 10:05:42;;;;;;;3.22;1.30;;;;;;;25.59;36.68;99065.97;4468829;32;33447;-61
2023/11/12 10:08:10;;;;;;;3.30;1.30;;;;;;;25.57;36.88;99061.88;4466974;32;33818;-60
2023/11/12 10:10:40;;;;;;;4.07;1.33;;;;;;;25.53;36.95;99063.47;4454461;32;33672;-61
2023/11/12 10:13:09;;;;;;;3.50;1.50;;;;;;;25.51;37.03;99061.00;4468304;32;34657;-61
2023/11/12 10:15:36;;;;;;;3.87;1.10;;;;;;;25.48;37.07;99061.53;4468248;32;33770;-61
2023/11/12 10:18:04;;;;;;;3.53;1.58;;;;;;;25.44;37.03;99061.19;4467198;32;34623;-61
2023/11/12 10:20:37;;;;;;;8.60;1.67;;;;;;;25.42;37.07;99062.56;4468456;32;33780;-61
2023/11/12 10:23:05;;;;;;;5.65;1.27;;;;;;;25.38;37.15;99064.16;4466892;32;33784;-60
2023/11/12 10:25:38;;;;;;;4.70;1.30;;;;;;;25.35;37.18;99068.22;4468266;32;34312;-61
2023/11/12 10:28:07;;;;;;;4.95;1.12;;;;;;;25.33;37.20;99075.03;4468162;32;33636;-60
2023/11/12 10:30:37;;;;;;;6.78;1.37;;;;;;;25.30;37.27;99072.78;4474397;32;34735;-61
2023/11/12 10:33:19;;;;;;;2.50;1.17;;;;;;;25.28;37.28;99069.50;4482702;32;33450;-61
2023/11/12 10:35:48;;;;;;;3.97;1.20;;;;;;;25.26;37.27;99074.38;4480900;32;32952;-60
2023/11/12 10:38:17;;;;;;;4.00;1.00;;;;;;;25.21;37.35;99077.88;4483765;32;34696;-61
2023/11/12 10:41:02;;;;;;;5.70;1.30;;;;;;;25.19;37.36;99077.31;4483545;32;33893;-61
2023/11/12 10:43:30;;;;;;;3.53;1.20;;;;;;;25.17;37.38;99085.75;4469780;32;33819;-61
2023/11/12 10:46:03;;;;;;;3.78;1.20;;;;;;;25.13;37.41;99084.63;4482440;32;34109;-60
2023/11/12 10:48:36;;;;;;;3.22;1.30;;;;;;;25.11;37.40;99083.22;4483478;32;33567;-60
2023/11/12 10:51:07;;;;;;;7.43;1.80;;;;;;;25.09;37.47;99079.94;4483132;32;34666;-60
2023/11/12 10:53:36;;;;;;;14.32;2.35;;;;;;;25.07;37.68;99084.78;4485385;32;33833;-62
2023/11/12 10:56:07;;;;;;;8.35;1.90;;;;;;;25.04;37.68;99085.28;4484249;32;34105;-60
2023/11/12 10:58:34;;;;;;;11.12;1.20;;;;;;;25.03;37.65;99089.09;4482860;32;34509;-60
2023/11/12 11:01:03;;;;;;;5.03;1.55;;;;;;;25.01;37.62;99083.91;4485493;32;33508;-61
2023/11/12 11:03:32;;;;;;;4.75;1.40;;;;;;;24.98;37.64;99078.94;4485507;32;34680;-60
2023/11/12 11:06:02;;;;;;;3.83;1.50;;;;;;;24.95;37.68;99079.47;4484129;32;34084;-60
2023/11/12 11:08:30;;;;;;;4.68;1.20;;;;;;;24.93;37.69;99076.97;4485621;31;34202;-61
2023/11/12 11:10:59;;;;;;;4.30;1.35;;;;;;;24.91;37.73;99084.59;4485484;32;34969;-61
2023/11/12 11:13:26;;;;;;;4.93;1.40;;;;;;;24.88;37.75;99082.38;4485149;32;34204;-60
2023/11/12 11:15:56;;;;;;;3.15;1.20;;;;;;;24.88;37.76;99084.28;4484133;32;33353;-61
2023/11/12 11:18:33;;;;;;;15.82;1.73;;;;;;;24.86;37.79;99081.00;4485316;32;34530;-61
2023/11/12 11:23:38;;;;;;;;;;;;;;;24.80;37.83;99099.16;4485596;32;33409;-62
2023/11/12 11:26:25;;;;;;;11.45;2.15;;;;;;;24.89;37.55;99091.38;4480743;31;34011;-61
2023/11/12 11:29:09;;;;;;;4.78;1.42;;;;;;;24.81;37.75;99095.38;4488048;31;34810;-61
2023/11/12 11:31:38;;;;;;;5.65;1.80;;;;;;;24.76;37.94;99089.00;4484870;32;33991;-60
2023/11/12 11:34:07;;;;;;;7.55;2.05;;;;;;;24.75;38.21;99092.81;4484903;32;33812;-60
2023/11/12 11:36:34;;;;;;;6.97;2.08;;;;;;;24.73;38.29;99073.16;4470479;32;32974;-61
2023/11/12 11:39:02;;;;;;;9.93;2.25;;;;;;;24.73;38.43;99075.91;4484722;32;34686;-62
2023/11/12 11:41:53;;;;;;;11.30;2.45;;;;;;;24.71;38.40;99065.22;4484599;32;34828;-60